Alderwood Manor, WA

4:43 AM PST on February 21, 2017 (GMT -0800)
Alderwood Manor | | Change Station

Elev 318 ft 47.81 °N, 122.27 °W | Updated 12 seconds ago

Overcast
Overcast
39.9 °F
Feels Like 40 °F
N
0.0
Wind Variable Wind from SSW

Today
High -- | Low -- °F
--% Chance of Precip.
Yesterday
High -- | Low -- °F
Precip. -- in
Pressure 29.71 in
Visibility 2.0 miles
Clouds Overcast 100 ft
Windchill 40 °F
Dew Point 39 °F
Humidity 98%
Rainfall 0.00 in
Snow Depth Not available.
7:04 AM 5:42 PM
Waning Crescent, 25% visible
SPECI KPAE 211233Z 32006KT 2SM BR OVC001 05/05 A2971 RMK AO2 T00500050 $
Pressure 29.71 in
Visibility 2.0 miles
Clouds Overcast 100 ft
Windchill 40 °F
Dew Point 39 °F
Humidity 98%
Rainfall 0.00 in
Snow Depth Not available.
7:04 AM 5:42 PM
Waning Crescent, 25% visible
SPECI KPAE 211233Z 32006KT 2SM BR OVC001 05/05 A2971 RMK AO2 T00500050 $

Get Your Daily Forecast Email!

Thanks for signing up!

Be on the lookout for a verification email in your inbox.

You'll start receiving the daily forecast at 8 AM.

×

10-Day Weather Forecast

Almanac

Astronomy

Feb. 21, 2017 Rise Set
Actual Time
Civil Twilight
Nautical Twilight
Astronomical Twilight
Moon
Length of Visible Light
Length of Day
Tomorrow will be .
, % of the Moon is Illuminated

Today's Extremes

State Highs State Lows

Community

WunderPhotos

Upload Photos

1,962,540 photos uploaded!

WunderBlog® & News

Nearby

Air Quality

  Air Quality AQ Index Pollutant
Not available.

Snow Depth

Station Depth Elevation

Earthquake Activity

City Distance Mag. Time & Date
Minimum magnitude displayed is 2.5.

Coastal Water Temperatures

Place Temperature

Stations

Nearby Weather Stations

Station Location Temp. Windchill Dew Point Humidity Wind Precip. Elev Updated Type
                   

Watches & Warnings

There are currently no watches in effect.